createdAt,value
2018-12-16T00:01:48.644Z,10.32
2018-12-16T00:04:16.053Z,10.25
2018-12-16T00:06:43.469Z,10.93
2018-12-16T00:09:10.893Z,10.95
2018-12-16T00:14:12.242Z,10.98
2018-12-16T00:16:39.664Z,10.88
2018-12-16T00:19:07.098Z,9.93
2018-12-16T00:21:34.617Z,11.33
2018-12-16T00:24:02.061Z,10.38
2018-12-16T00:26:32.361Z,10.70
2018-12-16T00:28:59.776Z,10.53
2018-12-16T00:31:27.190Z,10.93
2018-12-16T00:33:54.681Z,10.40
2018-12-16T00:36:22.161Z,10.10
2018-12-16T00:38:49.681Z,10.30
2018-12-16T00:41:17.125Z,10.20
2018-12-16T00:43:44.537Z,11.85
2018-12-16T00:46:11.949Z,9.85
2018-12-16T00:48:39.373Z,10.75
2018-12-16T00:51:06.793Z,11.20
2018-12-16T00:53:34.349Z,10.45
2018-12-16T00:56:01.778Z,9.55
2018-12-16T00:58:29.245Z,10.08
2018-12-16T01:00:56.685Z,10.03
2018-12-16T01:03:24.101Z,12.45
2018-12-16T01:05:51.596Z,11.03
2018-12-16T01:08:19.073Z,10.88
2018-12-16T01:10:46.517Z,10.63
2018-12-16T01:13:13.949Z,10.65
2018-12-16T01:15:43.053Z,10.13
2018-12-16T01:18:10.454Z,10.70
2018-12-16T01:20:37.921Z,11.12
2018-12-16T01:23:05.360Z,10.78
2018-12-16T01:25:32.829Z,10.32
2018-12-16T01:28:00.793Z,10.40
2018-12-16T01:30:28.206Z,11.25
2018-12-16T01:32:55.625Z,12.95
2018-12-16T01:35:23.101Z,12.03
2018-12-16T01:37:50.584Z,12.13
2018-12-16T01:40:18.031Z,10.53
2018-12-16T01:42:45.460Z,10.18
2018-12-16T01:45:12.905Z,10.95
2018-12-16T01:47:40.369Z,10.65
2018-12-16T01:50:07.816Z,11.30
2018-12-16T01:52:35.244Z,10.58
2018-12-16T01:55:02.717Z,11.65
2018-12-16T01:57:30.127Z,11.57
2018-12-16T01:59:57.642Z,11.57
2018-12-16T02:02:25.077Z,11.00
2018-12-16T02:04:52.492Z,12.15
2018-12-16T02:07:19.932Z,11.38
2018-12-16T02:09:47.373Z,11.18
2018-12-16T02:12:14.797Z,11.75
2018-12-16T02:14:42.220Z,12.13
2018-12-16T02:17:09.628Z,11.00
2018-12-16T02:19:37.048Z,11.25
2018-12-16T02:22:04.589Z,12.13
2018-12-16T02:24:32.002Z,10.95
2018-12-16T02:26:59.447Z,11.18
2018-12-16T02:29:26.942Z,11.38
2018-12-16T02:31:54.349Z,11.50
2018-12-16T02:34:21.841Z,11.78
2018-12-16T02:36:49.254Z,11.03
2018-12-16T02:39:16.766Z,12.35
2018-12-16T02:41:45.141Z,11.53
2018-12-16T02:44:12.563Z,10.80
2018-12-16T02:46:40.001Z,12.40
2018-12-16T02:49:08.326Z,11.65
2018-12-16T02:51:37.129Z,12.25
2018-12-16T02:54:04.686Z,12.50
2018-12-16T02:56:36.049Z,12.35
2018-12-16T02:59:03.489Z,11.18
2018-12-16T03:01:30.982Z,10.93
2018-12-16T03:03:58.389Z,11.30
2018-12-16T03:06:25.845Z,12.30
2018-12-16T03:08:53.310Z,13.05
2018-12-16T03:11:20.779Z,12.65
2018-12-16T03:13:48.265Z,12.37
2018-12-16T03:16:15.765Z,12.25
2018-12-16T03:18:43.209Z,12.20
2018-12-16T03:21:10.666Z,12.13
2018-12-16T03:23:38.156Z,12.53
2018-12-16T03:26:05.638Z,12.10
2018-12-16T03:28:33.132Z,11.90
2018-12-16T03:31:00.627Z,12.18
2018-12-16T03:33:28.118Z,13.05
2018-12-16T03:35:55.617Z,12.00
2018-12-16T03:38:23.046Z,12.50
2018-12-16T03:40:50.529Z,13.32
2018-12-16T03:43:18.010Z,11.63
2018-12-16T03:45:45.542Z,12.70
2018-12-16T03:48:13.021Z,12.15
2018-12-16T03:50:40.540Z,12.82
2018-12-16T03:53:07.965Z,12.37
2018-12-16T03:55:35.381Z,11.85
2018-12-16T03:58:02.840Z,12.23
2018-12-16T04:00:30.521Z,11.55
2018-12-16T04:02:57.929Z,13.22
2018-12-16T04:05:25.353Z,12.93
2018-12-16T04:07:52.836Z,11.80
2018-12-16T04:10:20.326Z,12.00
2018-12-16T04:12:47.733Z,13.70
2018-12-16T04:15:15.214Z,13.22
2018-12-16T04:17:42.662Z,13.25
2018-12-16T04:20:10.099Z,13.15
2018-12-16T04:22:37.619Z,13.43
2018-12-16T04:25:05.160Z,12.37
2018-12-16T04:27:32.609Z,12.47
2018-12-16T04:30:00.053Z,11.73
2018-12-16T04:32:27.545Z,12.43
2018-12-16T04:34:54.956Z,12.30
2018-12-16T04:37:22.377Z,12.82
2018-12-16T04:39:49.803Z,12.58
2018-12-16T04:42:17.206Z,13.20
2018-12-16T04:44:44.626Z,13.40
2018-12-16T04:47:12.067Z,12.47
2018-12-16T04:49:39.474Z,14.07
2018-12-16T04:52:07.265Z,13.38
2018-12-16T04:54:34.764Z,13.18
2018-12-16T04:57:03.170Z,13.95
2018-12-16T04:59:30.722Z,13.85
2018-12-16T05:01:58.154Z,12.25
2018-12-16T05:04:25.567Z,14.23
2018-12-16T05:06:53.061Z,12.95
2018-12-16T05:09:20.477Z,13.30
2018-12-16T05:11:47.968Z,14.50
2018-12-16T05:14:15.388Z,14.78
2018-12-16T05:16:42.823Z,13.72
2018-12-16T05:19:10.246Z,15.15
2018-12-16T05:21:37.725Z,15.03
2018-12-16T05:24:05.177Z,14.60
2018-12-16T05:26:32.619Z,14.68
2018-12-16T05:29:00.021Z,16.02
2018-12-16T05:31:27.450Z,15.78
2018-12-16T05:33:54.929Z,15.43
2018-12-16T05:36:22.345Z,17.07
2018-12-16T05:38:49.801Z,16.35
2018-12-16T05:41:17.260Z,17.02
2018-12-16T05:43:44.765Z,16.70
2018-12-16T05:46:12.182Z,16.10
2018-12-16T05:48:39.594Z,16.60
2018-12-16T05:51:07.017Z,17.50
2018-12-16T05:53:34.501Z,17.17
2018-12-16T05:56:01.957Z,17.25
2018-12-16T05:58:29.373Z,17.48
2018-12-16T06:00:56.789Z,18.45
2018-12-16T06:03:24.205Z,18.23
2018-12-16T06:05:51.651Z,16.97
2018-12-16T06:08:19.060Z,17.87
2018-12-16T06:10:46.498Z,18.60
2018-12-16T06:13:14.569Z,17.73
2018-12-16T06:15:42.172Z,16.80
2018-12-16T06:18:09.589Z,16.75
2018-12-16T06:20:37.001Z,16.27
2018-12-16T06:23:04.453Z,17.75
2018-12-16T06:25:32.715Z,17.62
2018-12-16T06:28:00.226Z,16.85
2018-12-16T06:30:28.309Z,16.75
2018-12-16T06:32:55.748Z,17.10
2018-12-16T06:35:23.161Z,17.45
2018-12-16T06:37:50.573Z,17.20
2018-12-16T06:40:18.004Z,17.65
2018-12-16T06:42:45.486Z,16.50
2018-12-16T06:45:12.909Z,18.30
2018-12-16T06:47:40.321Z,17.95
2018-12-16T06:50:07.850Z,15.88
2018-12-16T06:52:35.257Z,16.65
2018-12-16T06:55:03.933Z,18.52
2018-12-16T06:57:31.349Z,18.42
2018-12-16T06:59:58.769Z,18.37
2018-12-16T07:02:26.254Z,17.17
2018-12-16T07:04:53.765Z,17.70
2018-12-16T07:07:21.169Z,17.98
2018-12-16T07:09:48.584Z,18.85
2018-12-16T07:12:16.001Z,17.85
2018-12-16T07:14:43.500Z,17.92
2018-12-16T07:17:10.960Z,19.42
2018-12-16T07:19:38.513Z,17.85
2018-12-16T07:22:06.028Z,18.23
2018-12-16T07:24:33.522Z,17.77
2018-12-16T07:27:00.931Z,18.87
2018-12-16T07:29:28.427Z,17.50
2018-12-16T07:31:55.961Z,19.57
2018-12-16T07:34:23.377Z,18.07
2018-12-16T07:36:50.792Z,19.42
2018-12-16T07:39:18.227Z,17.87
2018-12-16T07:41:45.653Z,19.35
2018-12-16T07:44:13.073Z,19.20
2018-12-16T07:46:40.511Z,19.82
2018-12-16T07:49:07.985Z,17.77
2018-12-16T07:51:36.522Z,17.00
2018-12-16T07:54:04.103Z,18.10
2018-12-16T07:56:31.589Z,19.00
2018-12-16T07:58:59.020Z,17.90
2018-12-16T08:01:26.466Z,18.77
2018-12-16T08:03:54.596Z,19.27
2018-12-16T08:06:22.065Z,17.40
2018-12-16T08:08:49.485Z,19.00
2018-12-16T08:11:16.896Z,18.40
2018-12-16T08:13:44.318Z,18.67
2018-12-16T08:16:11.745Z,20.10
2018-12-16T08:18:39.192Z,19.52
2018-12-16T08:21:06.633Z,19.67
2018-12-16T08:23:35.474Z,18.23
2018-12-16T08:26:03.201Z,19.95
2018-12-16T08:28:30.692Z,19.52
2018-12-16T08:30:58.104Z,19.35
2018-12-16T08:33:25.557Z,18.77
2018-12-16T08:35:53.024Z,20.60
2018-12-16T08:38:20.446Z,21.23
2018-12-16T08:40:47.895Z,20.37
2018-12-16T08:43:15.305Z,19.85
2018-12-16T08:45:42.733Z,18.77
2018-12-16T08:48:10.166Z,18.87
2018-12-16T08:50:37.592Z,18.52
2018-12-16T08:53:05.013Z,18.32
2018-12-16T08:55:32.444Z,20.37
2018-12-16T08:57:59.877Z,19.52
2018-12-16T09:00:27.891Z,18.77
2018-12-16T09:02:55.337Z,18.17
2018-12-16T09:05:22.761Z,17.87
2018-12-16T09:07:50.177Z,24.77
2018-12-16T09:10:17.597Z,23.92
2018-12-16T09:12:45.039Z,19.77
2018-12-16T09:15:12.449Z,20.70
2018-12-16T09:17:39.873Z,20.10
2018-12-16T09:20:07.324Z,19.62
2018-12-16T09:22:34.841Z,20.35
2018-12-16T09:25:02.309Z,18.40
2018-12-16T09:27:29.818Z,19.67
2018-12-16T09:29:57.342Z,19.87
2018-12-16T09:32:25.809Z,20.50
2018-12-16T09:34:53.281Z,19.27
2018-12-16T09:37:20.705Z,19.98
2018-12-16T09:39:48.122Z,20.15
2018-12-16T09:42:15.623Z,18.77
2018-12-16T09:47:29.928Z,19.87
2018-12-16T09:49:57.443Z,19.37
2018-12-16T09:52:24.893Z,19.35
2018-12-16T09:54:52.411Z,18.92
2018-12-16T09:57:19.931Z,19.17
2018-12-16T09:59:47.663Z,18.82
2018-12-16T10:02:15.194Z,19.77
2018-12-16T10:04:42.669Z,19.07
2018-12-16T10:07:10.161Z,20.43
2018-12-16T10:09:37.626Z,18.95
2018-12-16T10:12:05.122Z,19.90
2018-12-16T10:14:32.847Z,18.57
2018-12-16T10:17:00.266Z,18.60
2018-12-16T10:19:27.673Z,20.10
2018-12-16T10:21:55.273Z,20.32
2018-12-16T10:24:22.746Z,20.12
2018-12-16T10:26:50.669Z,20.50
2018-12-16T10:29:18.384Z,19.67
2018-12-16T10:31:45.869Z,19.50
2018-12-16T10:34:13.291Z,19.97
2018-12-16T10:36:41.273Z,20.80
2018-12-16T10:39:08.688Z,21.00
2018-12-16T10:41:36.120Z,20.73
2018-12-16T10:44:03.583Z,19.12
2018-12-16T10:46:31.033Z,19.80
2018-12-16T10:49:04.532Z,20.72
2018-12-16T10:51:28.535Z,20.35
2018-12-16T10:53:56.021Z,32.75
2018-12-16T10:56:23.441Z,22.27
2018-12-16T10:58:50.857Z,20.70
2018-12-16T11:01:24.177Z,21.80
2018-12-16T11:03:51.601Z,21.87
2018-12-16T11:06:19.205Z,20.07
2018-12-16T11:08:46.957Z,20.27
2018-12-16T11:11:14.437Z,20.43
2018-12-16T11:13:41.908Z,21.00
2018-12-16T11:16:09.440Z,21.12
2018-12-16T11:18:36.873Z,20.70
2018-12-16T11:21:04.397Z,22.40
2018-12-16T11:23:31.913Z,21.00
2018-12-16T11:25:59.387Z,21.20
2018-12-16T11:28:26.884Z,20.72
2018-12-16T11:30:54.417Z,19.62
2018-12-16T11:33:21.848Z,21.10
2018-12-16T11:35:49.338Z,19.67
2018-12-16T11:38:16.903Z,21.30
2018-12-16T11:40:44.397Z,20.95
2018-12-16T11:43:11.849Z,22.25
2018-12-16T11:45:39.297Z,22.27
2018-12-16T11:48:06.754Z,20.70
2018-12-16T11:50:34.317Z,21.37
2018-12-16T11:53:01.761Z,23.90
2018-12-16T11:55:29.435Z,21.12
2018-12-16T11:57:56.857Z,23.55
2018-12-16T12:00:24.739Z,21.95
2018-12-16T12:02:52.238Z,23.32
2018-12-16T12:05:19.763Z,21.33
2018-12-16T12:07:47.161Z,23.77
2018-12-16T12:10:14.653Z,20.92
2018-12-16T12:12:42.065Z,21.93
2018-12-16T12:15:09.559Z,22.25
2018-12-16T12:17:36.994Z,21.50
2018-12-16T12:20:04.614Z,22.02
2018-12-16T12:22:33.108Z,21.82
2018-12-16T12:25:00.525Z,21.73
2018-12-16T12:27:27.938Z,20.65
2018-12-16T12:29:55.445Z,21.97
2018-12-16T12:32:22.915Z,21.25
2018-12-16T12:34:50.479Z,22.98
2018-12-16T12:37:18.078Z,20.90
2018-12-16T12:39:45.489Z,20.27
2018-12-16T12:42:12.909Z,21.70
2018-12-16T12:44:40.343Z,19.87
2018-12-16T12:47:07.769Z,21.90
2018-12-16T12:49:35.219Z,21.42
2018-12-16T12:52:03.275Z,21.63
2018-12-16T12:54:30.783Z,21.57
2018-12-16T12:56:58.224Z,21.87
2018-12-16T12:59:25.645Z,22.93
2018-12-16T13:01:53.103Z,23.57
2018-12-16T13:04:20.559Z,23.00
2018-12-16T13:06:48.140Z,23.25
2018-12-16T13:09:15.653Z,23.70
2018-12-16T13:11:43.110Z,23.25
2018-12-16T13:14:10.596Z,22.17
2018-12-16T13:16:38.124Z,23.02
2018-12-16T13:19:05.710Z,22.95
2018-12-16T13:21:35.296Z,23.55
2018-12-16T13:24:02.796Z,23.85
2018-12-16T13:26:30.556Z,23.25
2018-12-16T13:28:57.949Z,24.00
2018-12-16T13:31:25.382Z,23.85
2018-12-16T13:33:52.820Z,25.12
2018-12-16T13:36:20.310Z,23.95
2018-12-16T13:38:47.733Z,26.30
2018-12-16T13:41:15.194Z,26.00
2018-12-16T13:43:42.609Z,26.27
2018-12-16T13:46:10.060Z,25.25
2018-12-16T13:48:37.518Z,24.47
2018-12-16T13:51:06.666Z,26.07
2018-12-16T13:53:34.320Z,25.65
2018-12-16T13:56:01.849Z,26.68
2018-12-16T13:58:29.429Z,26.62
2018-12-16T14:00:56.837Z,25.62
2018-12-16T14:03:24.278Z,27.45
2018-12-16T14:05:51.726Z,27.07
2018-12-16T14:08:19.148Z,25.75
2018-12-16T14:10:46.569Z,27.27
2018-12-16T14:13:13.999Z,27.02
2018-12-16T14:15:41.510Z,25.32
2018-12-16T14:18:08.920Z,26.48
2018-12-16T14:20:36.347Z,27.00
2018-12-16T14:23:03.850Z,25.05
2018-12-16T14:25:32.227Z,26.00
2018-12-16T14:27:59.721Z,25.92
2018-12-16T14:30:27.166Z,25.80
2018-12-16T14:32:54.654Z,25.97
2018-12-16T14:35:22.201Z,24.72
2018-12-16T14:37:49.651Z,24.40
2018-12-16T14:40:17.109Z,26.40
2018-12-16T14:42:44.640Z,24.23
2018-12-16T14:45:12.165Z,26.82
2018-12-16T14:47:39.595Z,26.17
2018-12-16T14:50:07.306Z,25.82
2018-12-16T14:52:34.816Z,25.85
2018-12-16T14:55:02.220Z,28.55
2018-12-16T14:57:29.652Z,26.30
2018-12-16T14:59:57.073Z,25.82
2018-12-16T15:02:24.512Z,26.62
2018-12-16T15:04:51.931Z,26.77
2018-12-16T15:07:19.423Z,25.55
2018-12-16T15:09:46.966Z,26.20
2018-12-16T15:12:14.435Z,25.82
2018-12-16T15:14:41.882Z,25.05
2018-12-16T15:17:10.015Z,26.82
2018-12-16T15:19:37.432Z,26.40
2018-12-16T15:22:05.259Z,25.40
2018-12-16T15:24:32.716Z,25.40
2018-12-16T15:27:00.156Z,25.75
2018-12-16T15:29:27.637Z,25.45
2018-12-16T15:31:56.062Z,26.87
2018-12-16T15:34:23.621Z,26.30
2018-12-16T15:36:51.041Z,26.20
2018-12-16T15:39:18.457Z,25.80
2018-12-16T15:41:45.918Z,25.68
2018-12-16T15:44:13.379Z,26.05
2018-12-16T15:46:40.895Z,26.65
2018-12-16T15:49:21.536Z,25.75
2018-12-16T15:51:50.863Z,29.03
2018-12-16T15:54:18.260Z,26.12
2018-12-16T15:56:45.681Z,23.70
2018-12-16T15:59:13.107Z,24.12
2018-12-16T16:01:40.564Z,25.57
2018-12-16T16:04:07.976Z,26.10
2018-12-16T16:06:35.420Z,24.35
2018-12-16T16:09:04.709Z,25.40
2018-12-16T16:11:32.133Z,25.25
2018-12-16T16:13:59.553Z,24.40
2018-12-16T16:16:27.029Z,25.60
2018-12-16T16:18:54.513Z,25.70
2018-12-16T16:21:23.510Z,25.75
2018-12-16T16:23:51.045Z,25.27
2018-12-16T16:26:18.461Z,26.57
2018-12-16T16:28:45.873Z,26.75
2018-12-16T16:31:13.353Z,27.95
2018-12-16T16:33:40.760Z,25.50
2018-12-16T16:36:08.244Z,25.65
2018-12-16T16:38:35.673Z,25.65
2018-12-16T16:41:03.221Z,24.92
2018-12-16T16:43:30.652Z,26.57
2018-12-16T16:45:58.088Z,25.82
2018-12-16T16:48:25.508Z,26.17
2018-12-16T16:50:52.933Z,25.30
2018-12-16T16:53:20.354Z,24.70
2018-12-16T16:55:47.857Z,25.88
2018-12-16T16:58:15.295Z,23.35
2018-12-16T17:00:42.693Z,25.68
2018-12-16T17:03:10.124Z,23.80
2018-12-16T17:05:37.568Z,25.55
2018-12-16T17:08:05.050Z,24.45
2018-12-16T17:10:32.488Z,26.00
2018-12-16T17:13:00.959Z,25.27
2018-12-16T17:15:28.517Z,22.95
2018-12-16T17:17:55.933Z,22.32
2018-12-16T17:20:23.345Z,22.80
2018-12-16T17:22:50.789Z,22.77
2018-12-16T17:25:18.234Z,21.97
2018-12-16T17:27:45.654Z,22.65
2018-12-16T17:30:13.165Z,23.10
2018-12-16T17:32:40.581Z,23.73
2018-12-16T17:35:08.050Z,22.48
2018-12-16T17:37:35.489Z,22.43
2018-12-16T17:40:03.448Z,22.03
2018-12-16T17:42:30.943Z,21.90
2018-12-16T17:44:58.346Z,21.63
2018-12-16T17:47:27.215Z,22.73
2018-12-16T17:49:54.642Z,22.62
2018-12-16T17:52:22.873Z,21.83
2018-12-16T17:54:50.291Z,22.77
2018-12-16T17:57:17.711Z,22.70
2018-12-16T17:59:45.136Z,22.47
2018-12-16T18:02:12.617Z,21.43
2018-12-16T18:04:40.105Z,22.98
2018-12-16T18:07:07.553Z,23.20
2018-12-16T18:09:34.978Z,23.23
2018-12-16T18:12:02.423Z,22.13
2018-12-16T18:20:04.361Z,22.15
2018-12-16T18:28:04.761Z,22.83
2018-12-16T18:30:32.305Z,22.17
2018-12-16T18:32:59.828Z,23.50
2018-12-16T18:35:27.253Z,23.87
2018-12-16T18:37:54.909Z,22.13
2018-12-16T18:40:22.345Z,22.43
2018-12-16T18:42:49.790Z,23.30
2018-12-16T18:45:17.201Z,23.40
2018-12-16T18:47:44.643Z,23.63
2018-12-16T18:50:12.117Z,24.00
2018-12-16T18:52:39.510Z,22.03
2018-12-16T18:55:08.241Z,23.13
2018-12-16T18:57:36.941Z,24.37
2018-12-16T19:00:05.427Z,24.37
2018-12-16T19:02:32.879Z,23.63
2018-12-16T19:05:00.289Z,23.40
2018-12-16T19:07:28.425Z,22.33
2018-12-16T19:09:55.870Z,23.40
2018-12-16T19:12:23.273Z,24.10
2018-12-16T19:14:50.984Z,23.77
2018-12-16T19:17:18.389Z,23.17
2018-12-16T19:19:45.865Z,23.63
2018-12-16T19:22:13.403Z,23.13
2018-12-16T19:24:40.809Z,24.23
2018-12-16T19:27:08.241Z,21.83
2018-12-16T19:29:35.657Z,23.80
2018-12-16T19:32:03.177Z,22.90
2018-12-16T19:34:30.621Z,23.87
2018-12-16T19:36:58.101Z,24.27
2018-12-16T19:39:25.568Z,24.00
2018-12-16T19:41:53.894Z,24.43
2018-12-16T19:44:21.310Z,23.80
2018-12-16T19:46:48.809Z,23.18
2018-12-16T19:49:16.230Z,24.97
2018-12-16T19:51:46.046Z,25.12
2018-12-16T19:54:13.460Z,25.47
2018-12-16T19:56:40.945Z,25.17
2018-12-16T19:59:08.401Z,28.40
2018-12-16T20:01:35.845Z,25.77
2018-12-16T20:04:09.222Z,27.73
2018-12-16T20:06:42.503Z,27.73
2018-12-16T20:09:09.941Z,30.75
2018-12-16T20:11:37.365Z,31.30
2018-12-16T20:14:04.818Z,29.27
2018-12-16T20:16:32.264Z,27.07
2018-12-16T20:18:59.709Z,28.43
2018-12-16T20:21:27.121Z,29.17
2018-12-16T20:23:54.540Z,30.27
2018-12-16T20:26:21.969Z,31.37
2018-12-16T20:28:49.425Z,32.17
2018-12-16T20:31:16.925Z,32.48
2018-12-16T20:33:44.381Z,29.65
2018-12-16T20:36:11.804Z,31.77
2018-12-16T20:38:39.237Z,30.90
2018-12-16T20:41:06.679Z,32.07
2018-12-16T20:43:34.242Z,33.95
2018-12-16T20:46:01.722Z,32.70
2018-12-16T20:48:29.215Z,32.93
2018-12-16T20:50:56.705Z,35.45
2018-12-16T20:53:24.992Z,34.78
2018-12-16T20:55:52.426Z,33.37
2018-12-16T20:58:19.838Z,31.70
2018-12-16T21:00:47.358Z,34.48
2018-12-16T21:03:14.768Z,35.58
2018-12-16T21:05:42.224Z,33.23
2018-12-16T21:08:09.649Z,36.40
2018-12-16T21:10:37.084Z,32.90
2018-12-16T21:13:10.262Z,36.40
2018-12-16T21:15:43.470Z,36.53
2018-12-16T21:18:16.565Z,36.13
2018-12-16T21:20:43.986Z,35.10
2018-12-16T21:23:11.425Z,35.30
2018-12-16T21:25:38.858Z,34.43
2018-12-16T21:28:06.269Z,35.07
2018-12-16T21:30:33.736Z,34.10
2018-12-16T21:33:01.189Z,36.47
2018-12-16T21:35:28.630Z,32.77
2018-12-16T21:37:56.042Z,32.87
2018-12-16T21:40:23.501Z,32.73
2018-12-16T21:42:50.934Z,31.37
2018-12-16T21:45:18.429Z,32.33
2018-12-16T21:47:45.934Z,32.80
2018-12-16T21:50:13.364Z,32.40
2018-12-16T21:52:40.784Z,30.83
2018-12-16T21:55:08.342Z,31.30
2018-12-16T21:57:35.783Z,31.03
2018-12-16T22:00:03.930Z,30.73
2018-12-16T22:02:31.350Z,32.13
2018-12-16T22:04:58.801Z,29.53
2018-12-16T22:07:26.218Z,30.77
2018-12-16T22:09:53.640Z,30.37
2018-12-16T22:12:21.394Z,30.37
2018-12-16T22:14:49.127Z,30.67
2018-12-16T22:17:16.987Z,30.50
2018-12-16T22:19:44.844Z,32.43
2018-12-16T22:22:12.826Z,29.23
2018-12-16T22:24:40.864Z,29.30
2018-12-16T22:27:08.881Z,29.97
2018-12-16T22:29:36.471Z,28.90
2018-12-16T22:32:04.359Z,29.53
2018-12-16T22:34:32.675Z,27.67
2018-12-16T22:37:00.441Z,27.93
2018-12-16T22:39:28.324Z,27.17
2018-12-16T22:41:56.051Z,29.23
2018-12-16T22:44:24.177Z,28.03
2018-12-16T22:46:52.762Z,28.10
2018-12-16T22:49:20.560Z,29.87
2018-12-16T22:51:48.811Z,27.90
2018-12-16T22:54:16.619Z,29.60
2018-12-16T22:56:44.621Z,29.30
2018-12-16T22:59:12.513Z,27.37
2018-12-16T23:01:41.112Z,27.97
2018-12-16T23:04:08.633Z,26.57
2018-12-16T23:06:37.503Z,27.17
2018-12-16T23:09:05.717Z,27.47
2018-12-16T23:11:33.224Z,27.93
2018-12-16T23:14:00.698Z,26.40
2018-12-16T23:16:28.169Z,27.97
2018-12-16T23:18:57.270Z,25.23
2018-12-16T23:21:24.787Z,34.92
2018-12-16T23:23:52.203Z,26.70
2018-12-16T23:26:19.733Z,27.50
2018-12-16T23:28:47.175Z,28.43
2018-12-16T23:31:14.768Z,27.47
2018-12-16T23:33:42.353Z,27.80
2018-12-16T23:36:09.807Z,26.57
2018-12-16T23:38:37.388Z,27.63
2018-12-16T23:41:05.093Z,27.07
2018-12-16T23:43:33.262Z,26.67
2018-12-16T23:46:01.168Z,27.10
2018-12-16T23:48:29.517Z,27.90
2018-12-16T23:50:57.483Z,27.23
2018-12-16T23:53:25.275Z,28.90
2018-12-16T23:55:53.661Z,27.70
2018-12-16T23:58:22.853Z,27.87
